createdAt,value
2018-12-31T00:02:19.353Z,7.50
2018-12-31T00:04:45.304Z,7.50
2018-12-31T00:07:11.333Z,7.50
2018-12-31T00:09:37.317Z,7.50
2018-12-31T00:12:03.276Z,7.70
2018-12-31T00:14:29.278Z,7.70
2018-12-31T00:16:55.304Z,7.50
2018-12-31T00:19:21.260Z,7.50
2018-12-31T00:21:47.270Z,7.50
2018-12-31T00:24:13.238Z,7.40
2018-12-31T00:26:39.204Z,7.40
2018-12-31T00:29:05.330Z,7.50
2018-12-31T00:31:31.441Z,7.50
2018-12-31T00:33:58.238Z,7.60
2018-12-31T00:36:24.213Z,7.60
2018-12-31T00:38:50.171Z,7.60
2018-12-31T00:41:16.141Z,7.50
2018-12-31T00:43:42.165Z,7.50
2018-12-31T00:46:08.887Z,7.60
2018-12-31T00:48:34.830Z,7.60
2018-12-31T00:51:00.822Z,7.60
2018-12-31T00:53:26.789Z,7.60
2018-12-31T00:55:52.735Z,7.70
2018-12-31T00:58:18.756Z,7.70
2018-12-31T01:00:44.709Z,7.70
2018-12-31T01:03:10.663Z,7.70
2018-12-31T01:05:37.377Z,7.70
2018-12-31T01:08:03.357Z,7.70
2018-12-31T01:10:29.285Z,7.80
2018-12-31T01:12:55.305Z,7.80
2018-12-31T01:15:21.249Z,7.70
2018-12-31T01:17:47.198Z,7.80
2018-12-31T01:20:13.183Z,7.80
2018-12-31T01:22:39.181Z,7.50
2018-12-31T01:25:05.140Z,7.70
2018-12-31T01:27:31.146Z,7.80
2018-12-31T01:29:57.870Z,7.80
2018-12-31T01:32:23.839Z,7.80
2018-12-31T01:34:49.805Z,7.90
2018-12-31T01:37:15.806Z,7.80
2018-12-31T01:39:41.984Z,7.90
2018-12-31T01:42:07.942Z,8.00
2018-12-31T01:44:34.624Z,7.90
2018-12-31T01:47:00.652Z,7.90
2018-12-31T01:49:26.616Z,7.90
2018-12-31T01:51:53.323Z,7.90
2018-12-31T01:54:19.311Z,7.90
2018-12-31T01:56:45.278Z,8.00
2018-12-31T01:59:11.500Z,7.90
2018-12-31T02:01:37.577Z,7.90
2018-12-31T02:04:03.550Z,7.80
2018-12-31T02:06:29.519Z,7.90
2018-12-31T02:08:55.497Z,7.90
2018-12-31T02:11:21.486Z,7.90
2018-12-31T02:13:47.454Z,7.80
2018-12-31T02:16:13.445Z,7.80
2018-12-31T02:18:39.416Z,7.80
2018-12-31T02:21:05.357Z,7.80
2018-12-31T02:23:31.371Z,7.90
2018-12-31T02:25:57.358Z,8.00
2018-12-31T02:28:24.073Z,7.90
2018-12-31T02:30:50.059Z,8.00
2018-12-31T02:33:16.031Z,7.80
2018-12-31T02:35:42.750Z,7.90
2018-12-31T02:38:08.728Z,7.90
2018-12-31T02:40:34.696Z,7.90
2018-12-31T02:43:00.689Z,7.90
2018-12-31T02:45:26.653Z,7.90
2018-12-31T02:47:52.657Z,7.90
2018-12-31T02:50:18.610Z,7.90
2018-12-31T02:52:44.554Z,8.00
2018-12-31T02:55:10.509Z,7.90
2018-12-31T02:57:36.440Z,8.00
2018-12-31T03:00:02.429Z,8.00
2018-12-31T03:02:28.376Z,8.00
2018-12-31T03:04:54.451Z,8.00
2018-12-31T03:07:20.441Z,8.00
2018-12-31T03:09:46.406Z,8.00
2018-12-31T03:12:12.370Z,8.00
2018-12-31T03:14:38.351Z,8.00
2018-12-31T03:17:04.364Z,8.00
2018-12-31T03:19:31.079Z,8.00
2018-12-31T03:21:57.049Z,8.00
2018-12-31T03:24:23.064Z,8.00
2018-12-31T03:26:49.030Z,7.90
2018-12-31T03:29:14.985Z,7.90
2018-12-31T03:31:41.718Z,7.80
2018-12-31T03:34:07.674Z,7.80
2018-12-31T03:36:33.625Z,7.90
2018-12-31T03:38:59.645Z,7.80
2018-12-31T03:41:25.621Z,7.80
2018-12-31T03:43:51.593Z,7.90
2018-12-31T03:46:17.585Z,7.80
2018-12-31T03:48:43.571Z,7.80
2018-12-31T03:51:10.274Z,7.80
2018-12-31T03:53:36.297Z,7.80
2018-12-31T03:56:02.298Z,7.80
2018-12-31T03:58:28.274Z,7.70
2018-12-31T04:00:54.314Z,7.70
2018-12-31T04:03:20.327Z,7.70
2018-12-31T04:05:47.058Z,7.70
2018-12-31T04:08:13.785Z,7.80
2018-12-31T04:10:39.821Z,7.80
2018-12-31T04:13:05.775Z,7.80
2018-12-31T04:15:31.768Z,7.70
2018-12-31T04:17:58.508Z,7.80
2018-12-31T04:20:24.482Z,7.80
2018-12-31T04:22:50.462Z,7.70
2018-12-31T04:25:16.480Z,7.80
2018-12-31T04:27:43.197Z,7.80
2018-12-31T04:30:09.182Z,7.80
2018-12-31T04:32:35.158Z,7.90
2018-12-31T04:35:01.965Z,7.70
2018-12-31T04:37:27.926Z,7.70
2018-12-31T04:39:54.645Z,7.90
2018-12-31T04:42:21.369Z,7.80
2018-12-31T04:44:47.357Z,7.80
2018-12-31T04:47:13.336Z,7.90
2018-12-31T04:49:39.308Z,8.00
2018-12-31T04:52:05.266Z,8.00
2018-12-31T04:54:31.271Z,8.00
2018-12-31T04:56:57.254Z,8.00
2018-12-31T04:59:23.234Z,8.10
2018-12-31T05:01:49.216Z,8.10
2018-12-31T05:04:15.179Z,8.10
2018-12-31T05:06:41.150Z,8.10
2018-12-31T05:09:07.133Z,8.10
2018-12-31T05:11:33.952Z,8.00
2018-12-31T05:13:59.930Z,8.00
2018-12-31T05:16:26.073Z,8.00
2018-12-31T05:18:52.051Z,8.10
2018-12-31T05:21:18.760Z,8.10
2018-12-31T05:23:44.798Z,8.10
2018-12-31T05:26:11.506Z,8.10
2018-12-31T05:28:37.482Z,8.10
2018-12-31T05:31:03.516Z,8.10
2018-12-31T05:33:29.468Z,8.20
2018-12-31T05:35:55.457Z,8.20
2018-12-31T05:38:21.553Z,8.10
2018-12-31T05:40:48.289Z,8.10
2018-12-31T05:43:14.273Z,8.10
2018-12-31T05:45:40.265Z,8.10
2018-12-31T05:48:06.257Z,8.20
2018-12-31T05:50:32.249Z,8.20
2018-12-31T05:52:58.276Z,8.20
2018-12-31T05:55:24.235Z,8.20
2018-12-31T05:57:50.263Z,8.30
2018-12-31T06:00:16.254Z,8.30
2018-12-31T06:02:42.232Z,8.30
2018-12-31T06:05:08.232Z,8.30
2018-12-31T06:07:34.237Z,8.20
2018-12-31T06:10:00.227Z,8.30
2018-12-31T06:12:26.201Z,8.30
2018-12-31T06:14:52.228Z,8.20
2018-12-31T06:17:18.223Z,8.30
2018-12-31T06:19:44.942Z,8.30
2018-12-31T06:22:10.949Z,8.20
2018-12-31T06:24:36.932Z,8.30
2018-12-31T06:27:02.932Z,8.20
2018-12-31T06:29:29.644Z,8.20
2018-12-31T06:31:55.646Z,8.10
2018-12-31T06:34:21.604Z,8.20
2018-12-31T06:36:47.614Z,8.30
2018-12-31T06:39:13.585Z,8.20
2018-12-31T06:41:39.564Z,8.20
2018-12-31T06:44:05.549Z,8.20
2018-12-31T06:46:31.508Z,8.30
2018-12-31T06:48:57.489Z,8.30
2018-12-31T06:51:23.513Z,8.30
2018-12-31T06:53:49.499Z,8.30
2018-12-31T06:56:15.546Z,8.20
2018-12-31T06:58:41.518Z,8.20
2018-12-31T07:01:07.493Z,8.20
2018-12-31T07:03:33.473Z,8.30
2018-12-31T07:05:59.420Z,8.30
2018-12-31T07:08:25.419Z,8.30
2018-12-31T07:10:52.116Z,8.20
2018-12-31T07:13:18.077Z,8.20
2018-12-31T07:15:44.813Z,8.30
2018-12-31T07:18:10.785Z,8.20
2018-12-31T07:20:36.774Z,8.20
2018-12-31T07:23:03.507Z,8.30
2018-12-31T07:25:29.504Z,8.30
2018-12-31T07:27:55.501Z,8.30
2018-12-31T07:30:21.473Z,8.30
2018-12-31T07:32:48.193Z,8.30
2018-12-31T07:35:14.198Z,8.30
2018-12-31T07:37:40.157Z,8.30
2018-12-31T07:40:06.871Z,8.20
2018-12-31T07:42:32.973Z,8.20
2018-12-31T07:44:58.965Z,8.30
2018-12-31T07:47:24.940Z,8.30
2018-12-31T07:49:50.922Z,8.30
2018-12-31T07:52:16.877Z,8.30
2018-12-31T07:54:42.839Z,8.40
2018-12-31T07:57:08.855Z,8.30
2018-12-31T07:59:34.855Z,8.40
2018-12-31T08:02:01.576Z,8.30
2018-12-31T08:04:27.601Z,8.30
2018-12-31T08:06:53.577Z,8.40
2018-12-31T08:09:19.532Z,8.40
2018-12-31T08:11:45.503Z,8.40
2018-12-31T08:14:11.500Z,8.50
2018-12-31T08:16:37.458Z,8.50
2018-12-31T08:19:03.441Z,8.50
2018-12-31T08:21:30.150Z,8.60
2018-12-31T08:23:56.113Z,8.60
2018-12-31T08:26:22.899Z,8.60
2018-12-31T08:28:48.878Z,8.60
2018-12-31T08:31:15.599Z,8.80
2018-12-31T08:33:42.329Z,8.90
2018-12-31T08:36:08.322Z,8.90
2018-12-31T08:38:34.320Z,8.80
2018-12-31T08:41:00.322Z,8.80
2018-12-31T08:43:26.385Z,8.80
2018-12-31T08:45:52.362Z,8.80
2018-12-31T08:48:18.340Z,8.80
2018-12-31T08:50:44.338Z,8.80
2018-12-31T08:53:10.328Z,8.80
2018-12-31T08:55:36.378Z,8.90
2018-12-31T08:58:02.383Z,8.80
2018-12-31T09:00:28.425Z,8.90
2018-12-31T09:02:54.400Z,8.90
2018-12-31T09:05:20.364Z,8.90
2018-12-31T09:07:46.318Z,8.90
2018-12-31T09:10:12.299Z,8.90
2018-12-31T09:12:38.262Z,9.00
2018-12-31T09:15:04.293Z,9.00
2018-12-31T09:17:30.281Z,9.00
2018-12-31T09:19:56.257Z,9.00
2018-12-31T09:22:22.248Z,8.90
2018-12-31T09:24:48.230Z,9.00
2018-12-31T09:27:14.204Z,9.00
2018-12-31T09:29:40.181Z,9.10
2018-12-31T09:32:06.433Z,9.20
2018-12-31T09:34:32.445Z,9.20
2018-12-31T09:36:58.406Z,9.20
2018-12-31T09:39:24.431Z,9.20
2018-12-31T09:41:50.416Z,9.20
2018-12-31T09:44:16.373Z,9.30
2018-12-31T09:46:42.377Z,9.30
2018-12-31T09:49:08.353Z,9.40
2018-12-31T09:51:34.330Z,9.40
2018-12-31T09:54:00.319Z,9.40
2018-12-31T09:56:26.299Z,9.30
2018-12-31T09:58:52.310Z,9.40
2018-12-31T10:01:18.316Z,9.50
2018-12-31T10:03:44.353Z,9.60
2018-12-31T10:06:10.343Z,9.50
2018-12-31T10:08:36.300Z,9.60
2018-12-31T10:11:02.294Z,9.50
2018-12-31T10:13:28.316Z,9.50
2018-12-31T10:15:54.283Z,9.60
2018-12-31T10:18:20.978Z,9.60
2018-12-31T10:20:46.964Z,9.60
2018-12-31T10:23:12.947Z,9.60
2018-12-31T10:25:38.935Z,9.60
2018-12-31T10:28:04.925Z,9.60
2018-12-31T10:30:30.897Z,9.60
2018-12-31T10:32:56.878Z,9.60
2018-12-31T10:35:22.873Z,9.60
2018-12-31T10:37:49.596Z,9.70
2018-12-31T10:40:15.571Z,9.70
2018-12-31T10:42:41.561Z,9.80
2018-12-31T10:45:07.565Z,9.90
2018-12-31T10:47:33.511Z,9.90
2018-12-31T10:49:59.510Z,10.00
2018-12-31T10:52:25.534Z,10.00
2018-12-31T10:54:52.249Z,10.20
2018-12-31T10:57:18.225Z,10.20
2018-12-31T10:59:44.213Z,10.20
2018-12-31T11:02:10.182Z,10.30
2018-12-31T11:04:36.133Z,10.30
2018-12-31T11:07:02.160Z,10.30
2018-12-31T11:09:28.126Z,10.40
2018-12-31T11:11:54.081Z,10.50
2018-12-31T11:14:20.106Z,10.60
2018-12-31T11:16:46.078Z,10.60
2018-12-31T11:19:12.036Z,10.80
2018-12-31T11:21:38.048Z,10.70
2018-12-31T11:24:04.033Z,10.70
2018-12-31T11:26:30.780Z,10.70
2018-12-31T11:28:56.766Z,10.70
2018-12-31T11:31:30.001Z,10.70
2018-12-31T11:33:48.824Z,10.60
2018-12-31T11:36:14.815Z,10.60
2018-12-31T11:38:40.815Z,10.60
2018-12-31T11:41:06.802Z,10.70
2018-12-31T11:43:32.768Z,10.70
2018-12-31T11:45:58.742Z,10.70
2018-12-31T11:48:25.481Z,10.70
2018-12-31T11:50:51.455Z,10.70
2018-12-31T11:53:17.520Z,10.80
2018-12-31T11:55:43.494Z,10.90
2018-12-31T11:58:09.524Z,10.70
2018-12-31T12:00:35.525Z,10.90
2018-12-31T12:03:01.525Z,10.90
2018-12-31T12:05:27.510Z,10.80
2018-12-31T12:07:53.563Z,10.80
2018-12-31T12:10:19.541Z,11.00
2018-12-31T12:12:45.511Z,11.10
2018-12-31T12:15:11.585Z,11.10
2018-12-31T12:17:37.589Z,11.20
2018-12-31T12:20:03.716Z,11.20
2018-12-31T12:22:29.716Z,11.20
2018-12-31T12:24:55.749Z,11.20
2018-12-31T12:27:21.745Z,11.20
2018-12-31T12:29:47.818Z,11.20
2018-12-31T12:32:14.031Z,11.00
2018-12-31T12:34:40.014Z,11.00
2018-12-31T12:37:05.993Z,11.00
2018-12-31T12:39:32.034Z,11.00
2018-12-31T12:41:58.011Z,11.00
2018-12-31T12:44:24.050Z,11.10
2018-12-31T12:46:50.051Z,11.00
2018-12-31T12:49:16.045Z,10.90
2018-12-31T12:51:42.018Z,10.90
2018-12-31T12:54:08.081Z,11.00
2018-12-31T12:56:34.240Z,10.90
2018-12-31T12:59:00.265Z,10.80
2018-12-31T13:01:26.229Z,10.90
2018-12-31T13:03:52.189Z,10.90
2018-12-31T13:06:18.144Z,10.90
2018-12-31T13:08:44.180Z,10.80
2018-12-31T13:11:10.165Z,10.90
2018-12-31T13:13:36.874Z,10.80
2018-12-31T13:16:03.229Z,10.80
2018-12-31T13:18:30.245Z,10.80
2018-12-31T13:20:56.524Z,10.90
2018-12-31T13:23:22.864Z,10.80
2018-12-31T13:25:49.012Z,10.90
2018-12-31T13:28:15.999Z,10.90
2018-12-31T13:30:42.063Z,11.00
2018-12-31T13:33:09.078Z,10.90
2018-12-31T13:35:35.064Z,10.90
2018-12-31T13:38:01.006Z,10.90
2018-12-31T13:40:27.035Z,10.90
2018-12-31T13:42:53.829Z,10.90
2018-12-31T13:45:19.867Z,10.90
2018-12-31T13:47:45.876Z,11.00
2018-12-31T13:50:12.566Z,11.00
2018-12-31T13:52:39.286Z,11.00
2018-12-31T13:55:05.269Z,11.00
2018-12-31T13:57:31.249Z,11.20
2018-12-31T13:59:57.449Z,11.30
2018-12-31T14:02:23.448Z,11.50
2018-12-31T14:04:49.393Z,11.40
2018-12-31T14:07:15.358Z,11.40
2018-12-31T14:09:41.359Z,11.30
2018-12-31T14:12:07.357Z,11.10
2018-12-31T14:14:33.397Z,11.10
2018-12-31T14:17:00.165Z,11.00
2018-12-31T14:19:26.618Z,10.90
2018-12-31T14:21:52.629Z,10.90
2018-12-31T14:24:18.650Z,10.90
2018-12-31T14:26:44.629Z,10.90
2018-12-31T14:29:10.798Z,10.90
2018-12-31T14:31:36.783Z,10.90
2018-12-31T14:34:03.107Z,10.80
2018-12-31T14:36:29.893Z,10.60
2018-12-31T14:38:56.177Z,10.60
2018-12-31T14:41:22.143Z,10.50
2018-12-31T14:43:48.398Z,10.40
2018-12-31T14:46:14.513Z,10.40
2018-12-31T14:48:40.844Z,10.40
2018-12-31T14:51:06.852Z,10.40
2018-12-31T14:53:45.813Z,10.30
2018-12-31T14:56:12.569Z,10.30
2018-12-31T14:58:38.709Z,10.30
2018-12-31T15:01:05.298Z,10.30
2018-12-31T15:03:35.038Z,10.30
2018-12-31T15:06:01.119Z,10.30
2018-12-31T15:08:27.363Z,10.30
2018-12-31T15:10:53.345Z,10.20
2018-12-31T15:13:19.328Z,10.20
2018-12-31T15:15:45.325Z,10.20
2018-12-31T15:18:11.546Z,10.20
2018-12-31T15:20:37.506Z,10.10
2018-12-31T15:23:03.529Z,10.20
2018-12-31T15:25:29.598Z,10.10
2018-12-31T15:27:55.605Z,10.10
2018-12-31T15:30:21.628Z,10.00
2018-12-31T15:32:47.688Z,9.90
2018-12-31T15:35:16.253Z,9.90
2018-12-31T15:37:42.214Z,10.00
2018-12-31T15:40:08.305Z,9.90
2018-12-31T15:42:34.310Z,9.90
2018-12-31T15:45:05.698Z,9.90
2018-12-31T15:47:31.680Z,10.00
2018-12-31T15:49:57.665Z,10.00
2018-12-31T15:52:24.476Z,10.00
2018-12-31T15:54:50.490Z,10.00
2018-12-31T15:57:16.688Z,10.00
2018-12-31T15:59:42.982Z,9.90
2018-12-31T16:02:08.981Z,10.00
2018-12-31T16:04:34.987Z,10.00
2018-12-31T16:07:01.219Z,10.00
2018-12-31T16:09:27.370Z,9.80
2018-12-31T16:11:53.474Z,9.90
2018-12-31T16:14:21.243Z,9.80
2018-12-31T16:16:47.252Z,9.70
2018-12-31T16:19:13.289Z,9.80
2018-12-31T16:21:39.323Z,9.80
2018-12-31T16:24:05.333Z,9.80
2018-12-31T16:26:31.339Z,9.80
2018-12-31T16:28:57.406Z,9.70
2018-12-31T16:31:23.426Z,9.70
2018-12-31T16:33:50.941Z,9.70
2018-12-31T16:36:17.069Z,9.70
2018-12-31T16:38:43.116Z,9.70
2018-12-31T16:41:09.273Z,9.80
2018-12-31T16:43:35.272Z,9.70
2018-12-31T16:46:01.276Z,9.70
2018-12-31T16:48:27.404Z,9.70
2018-12-31T16:50:53.417Z,9.70
2018-12-31T16:53:19.402Z,9.70
2018-12-31T16:55:45.419Z,9.60
2018-12-31T16:58:11.459Z,9.60
2018-12-31T17:00:37.471Z,9.70
2018-12-31T17:03:03.539Z,9.70
2018-12-31T17:05:29.841Z,9.60
2018-12-31T17:07:55.876Z,9.60
2018-12-31T17:10:21.870Z,9.60
2018-12-31T17:12:47.908Z,9.60
2018-12-31T17:15:13.985Z,9.60
2018-12-31T17:17:40.782Z,9.70
2018-12-31T17:20:07.072Z,9.60
2018-12-31T17:22:33.078Z,9.70
2018-12-31T17:24:59.175Z,9.70
2018-12-31T17:27:25.153Z,9.60
2018-12-31T17:29:51.137Z,9.60
2018-12-31T17:32:17.186Z,9.60
2018-12-31T17:34:43.453Z,9.60
2018-12-31T17:37:09.543Z,9.70
2018-12-31T17:39:35.516Z,9.70
2018-12-31T17:42:09.459Z,9.90
2018-12-31T17:44:28.003Z,10.10
2018-12-31T17:46:54.764Z,10.00
2018-12-31T17:49:20.830Z,10.00
2018-12-31T17:51:55.569Z,9.90
2018-12-31T17:54:14.999Z,9.90
2018-12-31T17:56:43.829Z,9.90
2018-12-31T17:59:13.125Z,9.90
2018-12-31T18:01:41.887Z,9.90
2018-12-31T18:04:09.850Z,9.80
2018-12-31T18:06:37.014Z,9.90
2018-12-31T18:09:04.607Z,9.80
2018-12-31T18:11:33.195Z,9.90
2018-12-31T18:14:00.403Z,9.80
2018-12-31T18:16:28.868Z,9.70
2018-12-31T18:18:56.253Z,9.80
2018-12-31T18:21:22.913Z,9.70
2018-12-31T18:23:49.781Z,9.60
2018-12-31T18:26:15.773Z,9.70
2018-12-31T18:28:41.761Z,9.70
2018-12-31T18:31:07.778Z,9.50
2018-12-31T18:33:33.744Z,9.60
2018-12-31T18:36:00.534Z,9.60
2018-12-31T18:38:26.536Z,9.60
2018-12-31T18:40:52.548Z,9.60
2018-12-31T18:43:18.521Z,9.70
2018-12-31T18:45:44.527Z,9.60
2018-12-31T18:48:10.552Z,9.60
2018-12-31T18:50:36.520Z,9.50
2018-12-31T18:53:02.593Z,9.60
2018-12-31T18:55:28.636Z,9.50
2018-12-31T18:57:54.721Z,9.70
2018-12-31T19:00:21.073Z,9.70
2018-12-31T19:02:47.935Z,9.60
2018-12-31T19:05:13.950Z,9.60
2018-12-31T19:07:40.049Z,9.60
2018-12-31T19:10:06.673Z,9.60
2018-12-31T19:12:32.925Z,9.60
2018-12-31T19:14:59.183Z,9.60
2018-12-31T19:17:25.363Z,9.60
2018-12-31T19:19:52.646Z,9.60
2018-12-31T19:22:18.720Z,9.70
2018-12-31T19:24:44.828Z,9.60
2018-12-31T19:27:10.829Z,9.60
2018-12-31T19:29:39.009Z,9.60
2018-12-31T19:32:05.057Z,9.60
2018-12-31T19:34:31.179Z,9.60
2018-12-31T19:36:57.360Z,9.60
2018-12-31T19:39:23.617Z,9.70
2018-12-31T19:41:49.731Z,9.90
2018-12-31T19:44:16.729Z,10.00
2018-12-31T19:46:42.720Z,10.00
2018-12-31T19:49:08.797Z,10.00
2018-12-31T19:51:34.910Z,10.00
2018-12-31T19:54:00.822Z,10.00
2018-12-31T19:56:26.859Z,9.90
2018-12-31T19:58:52.852Z,9.90
2018-12-31T20:01:18.861Z,9.90
2018-12-31T20:03:45.871Z,9.80
2018-12-31T20:06:11.929Z,9.80
2018-12-31T20:08:38.025Z,9.80
2018-12-31T20:11:04.088Z,9.70
2018-12-31T20:13:30.097Z,9.70
2018-12-31T20:15:56.177Z,9.70
2018-12-31T20:18:22.132Z,9.70
2018-12-31T20:20:48.218Z,9.70
2018-12-31T20:23:14.497Z,9.70
2018-12-31T20:25:40.514Z,9.70
2018-12-31T20:28:06.516Z,9.70
2018-12-31T20:30:32.565Z,9.70
2018-12-31T20:32:59.974Z,9.70
2018-12-31T20:35:26.166Z,9.70
2018-12-31T20:37:52.317Z,9.70
2018-12-31T20:40:18.352Z,9.70
2018-12-31T20:42:44.340Z,9.60
2018-12-31T20:45:10.391Z,9.70
2018-12-31T20:47:36.411Z,9.60
2018-12-31T20:50:02.412Z,9.60
2018-12-31T20:52:28.462Z,9.60
2018-12-31T20:54:54.854Z,9.50
2018-12-31T20:57:20.853Z,9.60
2018-12-31T20:59:47.031Z,9.60
2018-12-31T21:02:13.042Z,9.50
2018-12-31T21:04:39.073Z,9.60
2018-12-31T21:07:05.481Z,9.40
2018-12-31T21:09:31.234Z,9.50
2018-12-31T21:11:57.346Z,9.50
2018-12-31T21:14:23.384Z,9.40
2018-12-31T21:16:50.398Z,9.40
2018-12-31T21:19:17.357Z,9.50
2018-12-31T21:21:43.410Z,9.50
2018-12-31T21:24:10.619Z,9.40
2018-12-31T21:26:36.668Z,9.40
2018-12-31T21:29:02.707Z,9.30
2018-12-31T21:31:28.710Z,9.30
2018-12-31T21:33:54.690Z,9.30
2018-12-31T21:36:20.686Z,9.40
2018-12-31T21:38:46.775Z,9.40
2018-12-31T21:41:12.882Z,9.30
2018-12-31T21:43:39.014Z,9.40
2018-12-31T21:46:05.209Z,9.30
2018-12-31T21:48:31.361Z,9.30
2018-12-31T21:51:00.387Z,9.30
2018-12-31T21:53:26.533Z,9.30
2018-12-31T21:55:52.649Z,9.40
2018-12-31T21:58:18.823Z,9.30
2018-12-31T22:00:44.988Z,9.30
2018-12-31T22:03:11.128Z,9.30
2018-12-31T22:05:37.404Z,9.30
2018-12-31T22:08:03.548Z,9.30
2018-12-31T22:10:29.703Z,9.30
2018-12-31T22:12:55.743Z,9.20
2018-12-31T22:15:21.747Z,9.20
2018-12-31T22:17:48.006Z,9.30
2018-12-31T22:20:14.134Z,9.20
2018-12-31T22:22:40.415Z,9.20
2018-12-31T22:25:06.547Z,9.20
2018-12-31T22:27:32.662Z,9.20
2018-12-31T22:29:58.798Z,9.20
2018-12-31T22:32:24.927Z,9.20
2018-12-31T22:34:51.096Z,9.20
2018-12-31T22:37:17.291Z,9.20
2018-12-31T22:39:43.388Z,9.20
2018-12-31T22:42:09.519Z,9.20
2018-12-31T22:44:35.778Z,9.20
2018-12-31T22:47:02.143Z,9.20
2018-12-31T22:49:28.390Z,9.20
2018-12-31T22:51:54.614Z,9.20
2018-12-31T22:54:20.728Z,9.10
2018-12-31T22:56:46.872Z,9.20
2018-12-31T22:59:12.930Z,9.10
2018-12-31T23:01:40.121Z,9.20
2018-12-31T23:04:06.467Z,9.30
2018-12-31T23:06:32.624Z,9.20
2018-12-31T23:08:59.554Z,9.20
2018-12-31T23:11:26.260Z,9.20
2018-12-31T23:13:53.369Z,9.20
2018-12-31T23:16:20.307Z,9.20
2018-12-31T23:18:47.253Z,9.20
2018-12-31T23:21:13.424Z,9.10
2018-12-31T23:23:39.617Z,9.20
2018-12-31T23:26:05.831Z,9.20
2018-12-31T23:28:32.189Z,9.10
2018-12-31T23:30:58.405Z,9.10
2018-12-31T23:33:24.613Z,9.10
2018-12-31T23:35:50.745Z,9.10
2018-12-31T23:38:18.229Z,9.10
2018-12-31T23:40:43.316Z,9.10
2018-12-31T23:43:09.383Z,9.10
2018-12-31T23:45:35.560Z,9.10
2018-12-31T23:48:02.006Z,9.10
2018-12-31T23:50:28.893Z,9.10
2018-12-31T23:52:55.064Z,9.10
2018-12-31T23:55:22.243Z,9.10
2018-12-31T23:57:49.163Z,9.20
